Time;durP1;ratioP1;P1;durP2;ratioP2;P2;SDS_P1;SDS_P2;PMS_P1;PMS_P2;Temp;Humidity;BMP_temperature;BMP_pressure;BME280_temperature;BME280_humidity;BME280_pressure;Samples;Min_cycle;Max_cycle;Signal;HPM_P1;HPM_P2
2021/12/18 00:01:30;;;;;;;3.95;1.58;;;;;;;;;;5070956;28;20112;-69
2021/12/18 00:03:57;;;;;;;3.72;1.70;;;;;;;;;;5072350;28;20025;-71
2021/12/18 00:06:27;;;;;;;4.78;1.60;;;;;;;;;;5070823;28;20418;-69
2021/12/18 00:08:58;;;;;;;2.30;1.58;;;;;;;;;;5073206;28;20031;-70
2021/12/18 00:11:26;;;;;;;4.20;1.83;;;;;;;;;;5075822;28;20024;-70
2021/12/18 00:13:53;;;;;;;5.80;1.70;;;;;;;;;;5074407;28;20157;-69
2021/12/18 00:16:20;;;;;;;3.88;1.55;;;;;;;;;;5075812;28;20024;-71
2021/12/18 00:18:50;;;;;;;3.75;1.40;;;;;;;;;;5075727;28;20385;-72
2021/12/18 00:21:18;;;;;;;;;;;;;;;;;;5074381;28;20037;-72
2021/12/18 00:23:45;;;;;;;4.03;1.42;;;;;;;;;;5075810;28;20341;-72
2021/12/18 00:26:13;;;;;;;4.38;1.77;;;;;;;;;;5074180;28;20443;-72
2021/12/18 00:28:40;;;;;;;4.55;1.55;;;;;;;;;;5075658;28;20016;-71
2021/12/18 00:31:07;;;;;;;3.65;1.77;;;;;;;;;;5075399;28;20024;-74
2021/12/18 00:33:34;;;;;;;3.30;1.45;;;;;;;;;;5075305;28;20488;-72
2021/12/18 00:36:01;;;;;;;3.13;1.52;;;;;;;;;;5074006;28;20099;-72
2021/12/18 00:38:30;;;;;;;4.70;1.70;;;;;;;;;;5074010;28;20029;-71
2021/12/18 00:44:03;;;;;;;4.90;1.60;;;;;;;;;;5051415;28;20037;-72
2021/12/18 00:46:35;;;;;;;4.57;1.27;;;;;;;;;;5073921;28;20453;-72
2021/12/18 00:49:02;;;;;;;3.97;1.13;;;;;;;;;;5073891;28;20033;-72
2021/12/18 00:51:30;;;;;;;3.42;1.13;;;;;;;;;;5073728;28;20036;-72
2021/12/18 00:53:58;;;;;;;3.83;1.30;;;;;;;;;;5075102;28;20103;-72
2021/12/18 00:56:25;;;;;;;5.07;2.08;;;;;;;;;;5073576;28;20029;-72
2021/12/18 00:58:52;;;;;;;8.52;2.35;;;;;;;;;;5073480;28;20028;-73
2021/12/18 01:01:21;;;;;;;7.22;2.42;;;;;;;;;;5073606;28;20111;-72
2021/12/18 01:03:49;;;;;;;10.50;2.72;;;;;;;;;;5073480;28;20111;-72
2021/12/18 01:06:17;;;;;;;9.20;2.85;;;;;;;;;;5074961;28;20029;-71
2021/12/18 01:08:44;;;;;;;9.63;2.47;;;;;;;;;;5075038;28;20511;-72
2021/12/18 01:24:32;;;;;;;10.88;3.20;;;;;;;;;;5074486;28;20456;-73
2021/12/18 01:27:00;;;;;;;10.60;3.17;;;;;;;;;;5073137;28;20489;-73
2021/12/18 01:29:27;;;;;;;13.40;3.53;;;;;;;;;;5074722;28;20104;-73
2021/12/18 01:31:54;;;;;;;9.60;2.88;;;;;;;;;;5074471;28;20029;-73
2021/12/18 01:34:21;;;;;;;9.40;2.95;;;;;;;;;;5074195;28;20031;-73
2021/12/18 01:36:48;;;;;;;8.68;3.40;;;;;;;;;;5074498;28;20028;-73
2021/12/18 01:39:15;;;;;;;12.10;3.10;;;;;;;;;;5072693;28;20020;-73
2021/12/18 01:42:12;;;;;;;10.82;3.80;;;;;;;;;;5074200;28;20021;-72
2021/12/18 01:51:13;;;;;;;;;;;;;;;;;;5074688;28;20491;-72
2021/12/18 01:52:34;;;;;;;11.05;3.30;;;;;;;;;;5074400;28;20042;-73
2021/12/18 01:55:02;;;;;;;10.85;3.42;;;;;;;;;;5072427;28;20091;-72
2021/12/18 01:57:29;;;;;;;10.80;3.25;;;;;;;;;;5072437;28;20032;-73
2021/12/18 01:59:56;;;;;;;9.80;2.97;;;;;;;;;;5072356;28;20028;-73
2021/12/18 02:02:23;;;;;;;11.02;3.28;;;;;;;;;;5072450;28;20021;-73
2021/12/18 02:04:50;;;;;;;9.60;3.40;;;;;;;;;;5072403;28;20036;-74
2021/12/18 02:07:18;;;;;;;13.15;4.13;;;;;;;;;;5073736;28;20489;-73
2021/12/18 02:10:08;;;;;;;9.82;3.38;;;;;;;;;;5072039;28;20044;-73
2021/12/18 02:12:47;;;;;;;7.72;3.15;;;;;;;;;;5073482;28;20032;-73
2021/12/18 02:20:46;;;;;;;12.45;3.88;;;;;;;;;;5073452;28;20052;-73
2021/12/18 02:23:13;;;;;;;14.18;3.58;;;;;;;;;;5073380;28;20029;-73
2021/12/18 02:25:41;;;;;;;8.13;3.10;;;;;;;;;;5072041;28;20067;-74
2021/12/18 02:28:16;;;;;;;10.70;3.70;;;;;;;;;;5071859;28;20499;-73
2021/12/18 02:30:43;;;;;;;8.57;3.10;;;;;;;;;;5071674;28;20021;-72
2021/12/18 02:33:11;;;;;;;12.95;3.45;;;;;;;;;;5071450;28;20028;-73
2021/12/18 02:35:45;;;;;;;11.85;3.17;;;;;;;;;;5071744;28;20017;-72
2021/12/18 02:38:17;;;;;;;11.13;4.00;;;;;;;;;;5073259;28;20016;-71
2021/12/18 02:43:12;;;;;;;8.60;3.17;;;;;;;;;;5073293;28;20025;-72
2021/12/18 02:45:40;;;;;;;9.50;3.15;;;;;;;;;;5073607;28;20366;-74
2021/12/18 02:48:07;;;;;;;8.35;3.53;;;;;;;;;;5074539;28;20032;-73
2021/12/18 02:50:39;;;;;;;10.60;3.08;;;;;;;;;;5071623;28;20040;-72
2021/12/18 02:53:07;;;;;;;7.85;2.65;;;;;;;;;;5071738;28;20082;-72
2021/12/18 02:55:34;;;;;;;8.18;3.10;;;;;;;;;;5073015;28;20431;-72
2021/12/18 02:58:01;;;;;;;9.95;2.90;;;;;;;;;;5071612;28;20024;-73
2021/12/18 03:00:29;;;;;;;8.95;2.88;;;;;;;;;;5071750;28;20115;-73
2021/12/18 03:02:57;;;;;;;10.60;3.53;;;;;;;;;;5072301;28;20020;-73
2021/12/18 03:05:32;;;;;;;10.00;2.90;;;;;;;;;;5073297;28;20016;-73
2021/12/18 03:08:09;;;;;;;8.95;2.75;;;;;;;;;;5071552;28;20489;-73
2021/12/18 03:24:53;;;;;;;9.50;3.05;;;;;;;;;;5085317;28;20090;-75
2021/12/18 03:27:21;;;;;;;9.00;3.15;;;;;;;;;;5083841;28;20365;-76
2021/12/18 03:29:48;;;;;;;13.32;3.58;;;;;;;;;;5083367;28;20039;-75
2021/12/18 03:32:15;;;;;;;8.43;2.80;;;;;;;;;;5081862;28;20089;-75
2021/12/18 03:34:42;;;;;;;9.50;2.78;;;;;;;;;;5082221;28;20029;-75
2021/12/18 03:37:09;;;;;;;8.88;3.00;;;;;;;;;;5084330;28;20020;-75
2021/12/18 03:39:37;;;;;;;12.18;2.95;;;;;;;;;;5084278;28;20027;-76
2021/12/18 03:42:06;;;;;;;11.35;2.45;;;;;;;;;;5082128;28;20021;-76
2021/12/18 03:44:33;;;;;;;10.50;3.65;;;;;;;;;;5086946;28;20021;-75
2021/12/18 03:47:01;;;;;;;9.88;2.55;;;;;;;;;;5086176;28;20088;-76
2021/12/18 03:49:28;;;;;;;12.18;3.40;;;;;;;;;;5086574;28;20098;-75
2021/12/18 03:51:55;;;;;;;11.77;3.10;;;;;;;;;;5087431;28;20033;-75
2021/12/18 03:54:23;;;;;;;10.40;2.90;;;;;;;;;;5087022;28;20024;-76
2021/12/18 03:56:50;;;;;;;10.43;3.55;;;;;;;;;;5082585;28;20401;-75
2021/12/18 03:59:18;;;;;;;13.85;3.38;;;;;;;;;;5082066;28;20028;-75
2021/12/18 04:01:45;;;;;;;13.20;3.35;;;;;;;;;;5083461;28;20021;-75
2021/12/18 04:04:12;;;;;;;8.13;2.65;;;;;;;;;;5084393;28;20025;-75
2021/12/18 04:06:40;;;;;;;7.82;2.90;;;;;;;;;;5087017;28;20031;-75
2021/12/18 04:09:08;;;;;;;14.23;3.50;;;;;;;;;;5085522;28;20086;-75
2021/12/18 04:11:35;;;;;;;12.52;2.97;;;;;;;;;;5085907;28;20047;-75
2021/12/18 04:14:03;;;;;;;12.30;3.60;;;;;;;;;;5085460;28;20020;-75
2021/12/18 04:16:30;;;;;;;10.57;3.38;;;;;;;;;;5084806;28;20496;-75
2021/12/18 04:18:58;;;;;;;10.38;3.35;;;;;;;;;;5084475;28;20032;-75
2021/12/18 04:21:25;;;;;;;11.18;3.35;;;;;;;;;;5082961;28;20052;-75
2021/12/18 04:23:52;;;;;;;11.40;3.15;;;;;;;;;;5080199;28;20016;-75
2021/12/18 04:26:19;;;;;;;14.40;3.63;;;;;;;;;;5085113;28;20080;-76
2021/12/18 04:28:46;;;;;;;16.45;3.80;;;;;;;;;;5088361;28;20021;-76
2021/12/18 04:31:14;;;;;;;14.45;3.50;;;;;;;;;;5085110;28;20389;-76
2021/12/18 04:33:41;;;;;;;12.45;3.75;;;;;;;;;;5086460;28;20028;-76
2021/12/18 04:36:08;;;;;;;11.25;3.22;;;;;;;;;;5085953;28;20017;-75
2021/12/18 04:38:35;;;;;;;12.27;3.35;;;;;;;;;;5086334;28;20048;-76
2021/12/18 04:41:04;;;;;;;12.38;3.90;;;;;;;;;;5085823;28;20016;-76
2021/12/18 04:43:32;;;;;;;11.68;3.05;;;;;;;;;;5085646;28;20396;-76
2021/12/18 04:45:59;;;;;;;11.27;3.50;;;;;;;;;;5083073;28;20053;-76
2021/12/18 04:48:26;;;;;;;11.88;3.80;;;;;;;;;;5084894;28;20166;-75
2021/12/18 04:50:53;;;;;;;11.45;3.40;;;;;;;;;;5084568;28;20025;-76
2021/12/18 04:53:20;;;;;;;10.75;3.10;;;;;;;;;;5084618;28;20046;-75
2021/12/18 04:55:47;;;;;;;11.60;3.13;;;;;;;;;;5083751;28;20020;-75
2021/12/18 04:58:15;;;;;;;14.10;3.53;;;;;;;;;;5081168;28;20032;-75
2021/12/18 05:00:46;;;;;;;13.13;3.40;;;;;;;;;;5083073;28;20021;-75
2021/12/18 05:03:15;;;;;;;11.52;3.30;;;;;;;;;;5083599;28;20019;-76
2021/12/18 05:05:42;;;;;;;11.02;3.50;;;;;;;;;;5083589;28;20024;-75
2021/12/18 05:08:09;;;;;;;13.95;3.40;;;;;;;;;;5083292;28;20025;-75
2021/12/18 05:10:37;;;;;;;17.38;4.45;;;;;;;;;;5081970;28;20062;-75
2021/12/18 05:13:04;;;;;;;10.50;3.65;;;;;;;;;;5080622;28;20027;-76
2021/12/18 05:15:31;;;;;;;12.85;3.47;;;;;;;;;;5080274;28;20017;-75
2021/12/18 05:17:58;;;;;;;12.05;3.60;;;;;;;;;;5081503;28;20043;-75
2021/12/18 05:20:25;;;;;;;13.10;3.72;;;;;;;;;;5080763;28;20040;-75
2021/12/18 05:22:52;;;;;;;11.68;3.10;;;;;;;;;;5077668;28;20048;-74
2021/12/18 05:25:20;;;;;;;12.60;3.63;;;;;;;;;;5076006;28;20044;-74
2021/12/18 05:27:47;;;;;;;13.75;3.83;;;;;;;;;;5075085;28;20032;-74
2021/12/18 05:30:14;;;;;;;11.05;3.60;;;;;;;;;;5076640;28;20020;-74
2021/12/18 05:32:41;;;;;;;14.07;3.67;;;;;;;;;;5076019;28;20539;-74
2021/12/18 05:35:08;;;;;;;15.48;4.43;;;;;;;;;;5074146;28;20025;-74
2021/12/18 05:40:13;;;;;;;13.40;3.80;;;;;;;;;;5075314;28;20025;-74
2021/12/18 05:42:40;;;;;;;12.85;3.58;;;;;;;;;;5074614;28;20489;-74
2021/12/18 05:45:07;;;;;;;12.13;3.42;;;;;;;;;;5082328;28;20021;-75
2021/12/18 05:47:35;;;;;;;11.95;3.70;;;;;;;;;;5081484;28;20431;-74
2021/12/18 05:50:02;;;;;;;10.13;3.42;;;;;;;;;;5078698;28;20024;-75
2021/12/18 05:52:29;;;;;;;10.90;3.65;;;;;;;;;;5076257;28;20054;-75
2021/12/18 05:54:57;;;;;;;15.77;4.25;;;;;;;;;;5077002;28;20036;-75
2021/12/18 05:57:24;;;;;;;12.27;3.63;;;;;;;;;;5077636;28;20021;-75
2021/12/18 05:59:51;;;;;;;15.60;4.30;;;;;;;;;;5077509;28;20031;-75
2021/12/18 06:02:18;;;;;;;15.07;4.55;;;;;;;;;;5078842;28;20017;-75
2021/12/18 06:04:45;;;;;;;14.88;4.68;;;;;;;;;;5080746;28;20473;-75
2021/12/18 06:07:30;;;;;;;18.17;4.45;;;;;;;;;;5077885;28;20027;-75
2021/12/18 06:09:58;;;;;;;13.05;3.70;;;;;;;;;;5079604;28;20020;-75
2021/12/18 06:12:25;;;;;;;15.60;4.20;;;;;;;;;;5078775;28;20020;-75
2021/12/18 06:14:53;;;;;;;15.57;4.22;;;;;;;;;;5080375;28;20044;-75
2021/12/18 06:17:20;;;;;;;13.75;4.20;;;;;;;;;;5080228;28;20018;-75
2021/12/18 06:19:47;;;;;;;16.42;4.38;;;;;;;;;;5081288;28;20025;-75
2021/12/18 06:22:14;;;;;;;12.77;4.20;;;;;;;;;;5079609;28;20068;-75
2021/12/18 06:24:41;;;;;;;14.43;4.38;;;;;;;;;;5079524;28;20043;-73
2021/12/18 06:27:08;;;;;;;14.23;4.10;;;;;;;;;;5074881;28;20020;-74
2021/12/18 06:29:38;;;;;;;16.73;4.47;;;;;;;;;;5075506;28;20086;-74
2021/12/18 06:32:05;;;;;;;;;;;;;;;;;;5075214;28;20056;-74
2021/12/18 06:34:32;;;;;;;10.85;4.03;;;;;;;;;;5072908;28;19908;-74
2021/12/18 06:36:59;;;;;;;15.80;4.20;;;;;;;;;;5074193;28;20026;-74
2021/12/18 06:39:26;;;;;;;16.05;3.92;;;;;;;;;;5072786;28;20024;-74
2021/12/18 06:41:53;;;;;;;16.60;4.95;;;;;;;;;;5072509;28;20029;-75
2021/12/18 06:44:21;;;;;;;13.15;3.97;;;;;;;;;;5071940;28;20029;-76
2021/12/18 06:46:48;;;;;;;17.52;4.72;;;;;;;;;;5071600;28;20025;-76
2021/12/18 06:49:15;;;;;;;14.73;4.60;;;;;;;;;;5073470;28;20103;-76
2021/12/18 06:51:42;;;;;;;13.60;4.25;;;;;;;;;;5073386;28;20025;-74
2021/12/18 06:54:09;;;;;;;16.70;4.70;;;;;;;;;;5073328;28;20470;-77
2021/12/18 06:56:36;;;;;;;13.85;4.18;;;;;;;;;;5072906;28;20039;-75
2021/12/18 06:59:03;;;;;;;17.30;4.25;;;;;;;;;;5071575;28;20020;-76
2021/12/18 07:01:30;;;;;;;13.93;4.30;;;;;;;;;;5073091;28;20031;-76
2021/12/18 07:03:58;;;;;;;11.15;3.55;;;;;;;;;;5071542;28;20033;-78
2021/12/18 07:06:25;;;;;;;14.98;4.60;;;;;;;;;;5071333;28;20407;-75
2021/12/18 07:08:52;;;;;;;15.80;4.93;;;;;;;;;;5072832;28;20028;-75
2021/12/18 07:11:19;;;;;;;15.68;4.38;;;;;;;;;;5072735;28;20078;-76
2021/12/18 07:13:46;;;;;;;14.60;4.68;;;;;;;;;;5072788;28;20385;-74
2021/12/18 07:16:13;;;;;;;16.60;4.70;;;;;;;;;;5072841;28;20052;-75
2021/12/18 07:18:41;;;;;;;14.95;4.38;;;;;;;;;;5075055;28;20027;-75
2021/12/18 07:21:08;;;;;;;13.73;4.75;;;;;;;;;;5079304;28;20101;-75
2021/12/18 07:23:35;;;;;;;13.07;4.30;;;;;;;;;;5079292;28;20051;-75
2021/12/18 07:26:02;;;;;;;13.80;4.40;;;;;;;;;;5079212;28;20027;-75
2021/12/18 07:28:29;;;;;;;16.02;5.18;;;;;;;;;;5079291;28;20477;-76
2021/12/18 07:30:57;;;;;;;16.52;5.65;;;;;;;;;;5079740;28;20393;-75
2021/12/18 07:33:24;;;;;;;17.52;5.72;;;;;;;;;;5082982;28;20024;-76
2021/12/18 07:35:51;;;;;;;18.52;5.95;;;;;;;;;;5078240;28;20059;-75
2021/12/18 07:38:18;;;;;;;17.48;4.85;;;;;;;;;;5080921;28;20021;-77
2021/12/18 07:40:45;;;;;;;16.00;5.10;;;;;;;;;;5078037;28;20024;-75
2021/12/18 07:43:13;;;;;;;18.58;5.07;;;;;;;;;;5078923;28;20025;-76
2021/12/18 07:45:40;;;;;;;18.50;6.07;;;;;;;;;;5078807;28;20023;-75
2021/12/18 07:48:08;;;;;;;15.38;4.32;;;;;;;;;;5079110;28;20066;-76
2021/12/18 07:50:35;;;;;;;17.88;5.15;;;;;;;;;;5079357;28;20497;-77
2021/12/18 07:53:02;;;;;;;12.38;4.50;;;;;;;;;;5079879;28;20098;-76
2021/12/18 07:55:29;;;;;;;24.00;6.07;;;;;;;;;;5078093;28;20024;-77
2021/12/18 07:57:56;;;;;;;23.10;5.40;;;;;;;;;;5078437;28;20059;-77
2021/12/18 08:00:24;;;;;;;18.23;5.07;;;;;;;;;;5082593;28;20020;-78
2021/12/18 08:02:51;;;;;;;17.95;5.40;;;;;;;;;;5078392;28;20024;-79
2021/12/18 08:05:18;;;;;;;18.40;5.50;;;;;;;;;;5079101;28;20059;-76
2021/12/18 08:07:45;;;;;;;15.75;4.80;;;;;;;;;;5077543;28;20039;-77
2021/12/18 08:10:13;;;;;;;23.65;6.28;;;;;;;;;;5079352;28;20031;-76
2021/12/18 08:12:43;;;;;;;21.88;6.15;;;;;;;;;;5079420;28;20028;-76
2021/12/18 08:15:10;;;;;;;19.15;5.22;;;;;;;;;;5077751;28;20038;-77
2021/12/18 08:17:37;;;;;;;20.42;6.55;;;;;;;;;;5079141;28;20024;-77
2021/12/18 08:20:05;;;;;;;27.17;7.15;;;;;;;;;;5078712;28;20435;-78
2021/12/18 08:22:32;;;;;;;18.15;5.65;;;;;;;;;;5077800;28;20024;-79
2021/12/18 08:25:00;;;;;;;17.35;5.38;;;;;;;;;;5077626;28;20115;-79
2021/12/18 08:27:28;;;;;;;22.05;7.60;;;;;;;;;;5078977;28;20024;-78
2021/12/18 08:29:55;;;;;;;25.08;8.20;;;;;;;;;;5075476;28;20032;-76
2021/12/18 08:32:23;;;;;;;27.10;6.97;;;;;;;;;;5074904;28;20028;-73
2021/12/18 08:34:50;;;;;;;26.08;6.90;;;;;;;;;;5074103;28;20039;-74
2021/12/18 08:37:20;;;;;;;23.88;6.97;;;;;;;;;;5078132;28;20021;-79
2021/12/18 08:39:48;;;;;;;24.98;6.55;;;;;;;;;;5076205;28;20017;-77
2021/12/18 08:42:15;;;;;;;17.63;6.32;;;;;;;;;;5076244;28;20081;-79
2021/12/18 08:44:42;;;;;;;25.50;7.43;;;;;;;;;;5075435;28;20370;-75
2021/12/18 08:47:10;;;;;;;26.88;6.80;;;;;;;;;;5077128;28;20021;-75
2021/12/18 08:49:41;;;;;;;26.65;6.85;;;;;;;;;;5077561;28;20031;-74
2021/12/18 08:52:08;;;;;;;26.27;6.22;;;;;;;;;;5076838;28;20050;-75
2021/12/18 08:54:35;;;;;;;29.90;7.18;;;;;;;;;;5074523;28;20035;-76
2021/12/18 08:57:02;;;;;;;23.85;6.75;;;;;;;;;;5075235;28;20086;-73
2021/12/18 08:59:29;;;;;;;22.17;5.75;;;;;;;;;;5075169;28;20485;-75
2021/12/18 09:01:57;;;;;;;21.95;5.75;;;;;;;;;;5075143;28;20040;-72
2021/12/18 09:04:24;;;;;;;23.73;6.43;;;;;;;;;;5073722;28;20028;-73
2021/12/18 09:06:51;;;;;;;23.63;6.85;;;;;;;;;;5073658;28;20025;-73
2021/12/18 09:09:18;;;;;;;18.77;5.85;;;;;;;;;;5074996;28;20074;-73
2021/12/18 09:11:45;;;;;;;28.50;6.43;;;;;;;;;;5074967;28;20021;-72
2021/12/18 09:14:12;;;;;;;28.40;6.25;;;;;;;;;;5074706;28;20384;-73
2021/12/18 09:16:39;;;;;;;24.63;6.70;;;;;;;;;;5074703;28;20085;-73
2021/12/18 09:19:06;;;;;;;26.08;6.82;;;;;;;;;;5074782;28;20021;-73
2021/12/18 09:21:34;;;;;;;24.98;6.88;;;;;;;;;;5073026;28;20052;-73
2021/12/18 09:24:01;;;;;;;23.95;7.05;;;;;;;;;;5074820;28;20048;-73
2021/12/18 09:26:28;;;;;;;27.10;6.57;;;;;;;;;;5074705;28;20028;-73
2021/12/18 09:28:55;;;;;;;22.77;6.13;;;;;;;;;;5074553;28;20051;-74
2021/12/18 09:31:22;;;;;;;21.13;6.25;;;;;;;;;;5074369;28;20048;-72
2021/12/18 09:33:49;;;;;;;25.73;7.50;;;;;;;;;;5074417;28;20033;-73
2021/12/18 09:36:17;;;;;;;24.35;7.10;;;;;;;;;;5074412;28;20021;-72
2021/12/18 09:38:44;;;;;;;23.25;6.28;;;;;;;;;;5074419;28;20020;-73
2021/12/18 09:41:11;;;;;;;22.42;6.47;;;;;;;;;;5074214;28;20442;-73
2021/12/18 09:43:38;;;;;;;22.60;6.32;;;;;;;;;;5074217;28;20389;-73
2021/12/18 09:46:08;;;;;;;23.95;6.63;;;;;;;;;;5074270;28;20037;-74
2021/12/18 09:48:38;;;;;;;22.33;6.50;;;;;;;;;;5072719;28;20029;-73
2021/12/18 09:51:09;;;;;;;22.10;6.32;;;;;;;;;;5072675;28;20028;-74
2021/12/18 09:53:36;;;;;;;20.70;6.05;;;;;;;;;;5072723;28;20060;-73
2021/12/18 09:56:05;;;;;;;20.65;5.90;;;;;;;;;;5072669;28;20032;-73
2021/12/18 09:58:32;;;;;;;23.48;6.00;;;;;;;;;;5074128;28;20099;-73
2021/12/18 10:00:59;;;;;;;22.98;6.07;;;;;;;;;;5072587;28;20029;-73
2021/12/18 10:04:05;;;;;;;20.65;5.68;;;;;;;;;;5072617;28;20495;-73
2021/12/18 10:06:35;;;;;;;20.65;6.07;;;;;;;;;;5012183;28;20061;-72
2021/12/18 10:09:03;;;;;;;19.80;5.50;;;;;;;;;;4995603;28;20022;-72
2021/12/18 10:11:30;;;;;;;23.52;5.80;;;;;;;;;;5043865;28;20082;-73
2021/12/18 10:13:59;;;;;;;21.15;6.32;;;;;;;;;;5073665;28;20074;-73
2021/12/18 10:16:27;;;;;;;20.48;5.63;;;;;;;;;;5073688;28;20024;-72
2021/12/18 10:18:55;;;;;;;19.20;5.38;;;;;;;;;;5073523;28;20099;-73
2021/12/18 10:21:23;;;;;;;19.13;5.68;;;;;;;;;;5072100;28;20040;-73
2021/12/18 10:23:51;;;;;;;20.90;6.50;;;;;;;;;;5072141;28;20029;-73
2021/12/18 10:26:35;;;;;;;17.98;5.50;;;;;;;;;;5073436;28;20089;-73
2021/12/18 10:29:03;;;;;;;19.23;5.50;;;;;;;;;;5073488;28;20032;-72
2021/12/18 10:31:44;;;;;;;27.65;6.93;;;;;;;;;;5071960;28;20056;-73
2021/12/18 10:34:19;;;;;;;23.85;6.43;;;;;;;;;;5073268;28;20107;-76
2021/12/18 10:37:04;;;;;;;23.15;6.38;;;;;;;;;;5073354;28;20047;-74
2021/12/18 10:39:32;;;;;;;30.58;6.90;;;;;;;;;;5071993;28;20066;-74
2021/12/18 10:41:59;;;;;;;21.17;6.30;;;;;;;;;;5073299;28;20493;-74
2021/12/18 10:44:26;;;;;;;28.83;6.35;;;;;;;;;;5073292;28;20052;-74
2021/12/18 10:46:53;;;;;;;24.63;6.70;;;;;;;;;;5071854;28;20033;-73
2021/12/18 10:49:22;;;;;;;25.02;6.22;;;;;;;;;;5071797;28;20446;-74
2021/12/18 10:51:50;;;;;;;22.00;5.93;;;;;;;;;;5073049;28;20032;-74
2021/12/18 10:54:18;;;;;;;26.17;6.45;;;;;;;;;;5071153;28;20055;-74
2021/12/18 10:56:47;;;;;;;21.33;6.28;;;;;;;;;;5071682;28;20020;-74
2021/12/18 10:59:31;;;;;;;22.98;6.28;;;;;;;;;;5073113;28;20074;-74
2021/12/18 11:01:59;;;;;;;21.40;7.00;;;;;;;;;;5073261;28;20023;-74
2021/12/18 11:04:27;;;;;;;27.10;7.22;;;;;;;;;;5072995;28;20021;-74
2021/12/18 11:06:55;;;;;;;21.38;6.60;;;;;;;;;;5073148;28;20048;-74
2021/12/18 11:09:29;;;;;;;21.75;7.32;;;;;;;;;;5073074;28;20024;-74
2021/12/18 11:14:41;;;;;;;21.45;6.22;;;;;;;;;;5073009;28;20443;-74
2021/12/18 11:17:10;;;;;;;19.40;6.20;;;;;;;;;;5072918;28;20051;-75
2021/12/18 11:19:39;;;;;;;20.73;5.78;;;;;;;;;;5072876;28;20444;-75
2021/12/18 11:22:08;;;;;;;24.25;7.47;;;;;;;;;;5072681;28;20079;-75
2021/12/18 11:24:37;;;;;;;26.55;9.93;;;;;;;;;;5072817;28;20029;-75
2021/12/18 11:27:08;;;;;;;24.50;9.40;;;;;;;;;;5071581;28;20059;-74
2021/12/18 11:29:40;;;;;;;26.83;10.10;;;;;;;;;;5071684;28;20488;-75
2021/12/18 11:32:09;;;;;;;25.65;8.73;;;;;;;;;;5071566;28;20025;-75
2021/12/18 11:34:37;;;;;;;25.02;9.00;;;;;;;;;;5071300;28;20032;-75
2021/12/18 11:37:06;;;;;;;28.27;9.45;;;;;;;;;;5072747;28;20021;-75
2021/12/18 11:39:33;;;;;;;27.17;9.00;;;;;;;;;;5071363;28;20027;-74
2021/12/18 11:42:01;;;;;;;28.55;10.25;;;;;;;;;;5072744;28;20025;-74
2021/12/18 11:44:29;;;;;;;25.10;9.27;;;;;;;;;;5072742;28;20063;-73
2021/12/18 11:46:57;;;;;;;31.52;9.18;;;;;;;;;;5072641;28;20024;-75
2021/12/18 11:49:26;;;;;;;26.00;9.45;;;;;;;;;;5072564;28;20029;-75
2021/12/18 11:52:01;;;;;;;26.67;9.20;;;;;;;;;;5071297;28;20056;-75
2021/12/18 11:54:43;;;;;;;25.58;8.52;;;;;;;;;;5072470;28;20017;-75
2021/12/18 11:57:11;;;;;;;26.73;8.77;;;;;;;;;;5071186;28;20052;-75
2021/12/18 11:59:39;;;;;;;25.92;7.82;;;;;;;;;;5071108;28;20070;-75
2021/12/18 12:02:07;;;;;;;24.02;7.90;;;;;;;;;;5072558;28;20462;-75
2021/12/18 12:04:52;;;;;;;22.13;7.63;;;;;;;;;;5072542;28;20036;-75
2021/12/18 12:07:21;;;;;;;22.20;7.32;;;;;;;;;;5074894;28;20032;-75
2021/12/18 12:10:12;;;;;;;21.90;7.65;;;;;;;;;;5074685;28;20036;-75
2021/12/18 12:13:11;;;;;;;26.02;7.13;;;;;;;;;;5076123;28;20385;-75
2021/12/18 12:15:51;;;;;;;28.05;8.32;;;;;;;;;;5031566;28;20040;-75
2021/12/18 12:18:18;;;;;;;16.50;4.75;;;;;;;;;;5076109;28;20052;-74
2021/12/18 12:20:51;;;;;;;9.88;1.77;;;;;;;;;;5074257;28;20052;-74
2021/12/18 12:23:21;;;;;;;2.55;0.77;;;;;;;;;;5075817;28;20045;-76
2021/12/18 12:25:53;;;;;;;3.35;0.50;;;;;;;;;;5074368;28;20034;-74
2021/12/18 12:28:24;;;;;;;1.05;0.40;;;;;;;;;;5074337;28;20115;-73
2021/12/18 12:31:04;;;;;;;1.60;0.43;;;;;;;;;;5074311;28;20043;-74
2021/12/18 12:33:31;;;;;;;3.03;0.57;;;;;;;;;;5074357;28;20119;-75
2021/12/18 12:35:58;;;;;;;2.78;0.30;;;;;;;;;;5075689;28;20032;-74
2021/12/18 12:38:26;;;;;;;2.47;0.32;;;;;;;;;;5074244;28;20485;-73
2021/12/18 12:40:56;;;;;;;1.23;0.20;;;;;;;;;;5075553;28;20500;-75
2021/12/18 12:43:28;;;;;;;3.90;0.60;;;;;;;;;;5075564;28;20019;-73
2021/12/18 12:45:59;;;;;;;11.18;2.78;;;;;;;;;;5074012;28;20119;-73
2021/12/18 12:48:46;;;;;;;8.25;1.50;;;;;;;;;;5075431;28;20473;-73
2021/12/18 12:51:13;;;;;;;4.57;1.05;;;;;;;;;;5073846;28;20021;-73
2021/12/18 12:53:54;;;;;;;7.07;1.48;;;;;;;;;;5075306;28;20027;-73
2021/12/18 12:56:22;;;;;;;6.30;1.40;;;;;;;;;;5073830;28;20021;-73
2021/12/18 12:59:09;;;;;;;9.05;1.85;;;;;;;;;;5073902;28;20025;-72
2021/12/18 13:01:39;;;;;;;5.18;1.23;;;;;;;;;;5074999;28;20017;-73
2021/12/18 13:04:06;;;;;;;5.47;1.20;;;;;;;;;;5073854;28;20055;-73
2021/12/18 13:06:33;;;;;;;2.85;0.73;;;;;;;;;;5075155;28;20599;-73
2021/12/18 13:09:02;;;;;;;3.03;0.70;;;;;;;;;;5075149;28;20099;-74
2021/12/18 13:11:30;;;;;;;4.07;1.02;;;;;;;;;;5073651;28;20029;-74
2021/12/18 13:13:57;;;;;;;4.32;0.77;;;;;;;;;;5074845;28;20412;-73
2021/12/18 13:16:25;;;;;;;2.90;0.98;;;;;;;;;;5074356;28;20043;-73
2021/12/18 13:18:53;;;;;;;5.45;1.02;;;;;;;;;;5074829;28;20025;-73
2021/12/18 13:21:20;;;;;;;2.97;1.17;;;;;;;;;;5073151;28;20127;-73
2021/12/18 13:23:53;;;;;;;3.17;1.00;;;;;;;;;;5074715;28;20488;-74
2021/12/18 13:26:32;;;;;;;5.03;1.20;;;;;;;;;;5073474;28;20128;-74
2021/12/18 13:28:59;;;;;;;6.60;1.20;;;;;;;;;;5073426;28;20099;-74
2021/12/18 13:31:28;;;;;;;4.15;0.82;;;;;;;;;;5073254;28;20035;-73
2021/12/18 13:33:56;;;;;;;4.88;1.10;;;;;;;;;;5074539;28;20029;-74
2021/12/18 13:36:23;;;;;;;4.53;1.23;;;;;;;;;;5073238;28;20040;-75
2021/12/18 13:38:50;;;;;;;4.00;1.20;;;;;;;;;;5074596;28;20092;-75
2021/12/18 13:41:18;;;;;;;2.40;1.10;;;;;;;;;;5073071;28;20024;-75
2021/12/18 13:43:55;;;;;;;4.40;1.30;;;;;;;;;;5074425;28;20463;-74
2021/12/18 13:46:22;;;;;;;3.30;1.50;;;;;;;;;;5073055;28;20489;-74
2021/12/18 13:48:50;;;;;;;3.33;1.38;;;;;;;;;;5073008;28;20024;-74
2021/12/18 13:51:19;;;;;;;3.22;0.93;;;;;;;;;;5072913;28;20067;-74
2021/12/18 13:53:54;;;;;;;3.47;1.35;;;;;;;;;;5072753;28;20123;-74
2021/12/18 13:56:22;;;;;;;3.53;1.42;;;;;;;;;;5074174;28;20017;-74
2021/12/18 13:58:49;;;;;;;4.78;1.20;;;;;;;;;;5074159;28;20074;-74
2021/12/18 14:04:05;;;;;;;3.15;1.30;;;;;;;;;;5908055;22;20533;-75
2021/12/18 14:06:36;;;;;;;1.83;0.90;;;;;;;;;;5114814;28;20475;-75
2021/12/18 14:09:05;;;;;;;2.92;1.02;;;;;;;;;;5114709;28;20073;-76
2021/12/18 14:11:42;;;;;;;5.00;1.27;;;;;;;;;;5113244;28;20592;-75
2021/12/18 14:14:10;;;;;;;1.98;1.00;;;;;;;;;;5114522;28;20032;-76
2021/12/18 14:16:48;;;;;;;4.40;1.17;;;;;;;;;;5114406;28;20043;-77
2021/12/18 14:19:24;;;;;;;2.92;1.05;;;;;;;;;;5114538;28;20106;-77
2021/12/18 14:21:51;;;;;;;2.45;1.10;;;;;;;;;;5114438;28;20383;-77
2021/12/18 14:24:19;;;;;;;3.92;1.08;;;;;;;;;;5114371;28;20031;-77
2021/12/18 14:27:00;;;;;;;2.58;0.85;;;;;;;;;;5112911;28;20027;-77
2021/12/18 14:29:27;;;;;;;;;;;;;;;;;;5114312;28;20024;-77
2021/12/18 14:31:55;;;;;;;2.00;0.95;;;;;;;;;;5114426;28;19903;-77
2021/12/18 14:34:33;;;;;;;3.83;0.80;;;;;;;;;;5114149;28;20038;-77
2021/12/18 14:37:17;;;;;;;2.50;0.80;;;;;;;;;;5112873;28;20024;-77
2021/12/18 14:39:44;;;;;;;4.70;0.85;;;;;;;;;;5112464;28;20114;-77
2021/12/18 14:42:17;;;;;;;2.65;0.60;;;;;;;;;;5114123;28;20030;-76
2021/12/18 14:44:52;;;;;;;1.48;0.52;;;;;;;;;;5114064;28;20448;-76
2021/12/18 14:47:30;;;;;;;2.47;0.55;;;;;;;;;;5113964;28;20028;-77
2021/12/18 14:50:11;;;;;;;1.45;0.50;;;;;;;;;;5113923;28;20030;-76
2021/12/18 14:52:56;;;;;;;1.40;0.65;;;;;;;;;;5114049;28;20047;-76
2021/12/18 14:55:25;;;;;;;1.65;0.60;;;;;;;;;;5113737;28;20024;-77
2021/12/18 14:58:18;;;;;;;1.63;0.45;;;;;;;;;;5112488;28;20027;-76
2021/12/18 15:00:45;;;;;;;0.80;0.40;;;;;;;;;;5105161;28;20551;-76
2021/12/18 15:03:18;;;;;;;1.65;0.50;;;;;;;;;;5113720;28;20386;-76
2021/12/18 15:05:53;;;;;;;3.38;0.75;;;;;;;;;;5113593;28;20035;-76
2021/12/18 15:08:21;;;;;;;1.65;0.60;;;;;;;;;;5113924;28;20047;-76
2021/12/18 15:10:54;;;;;;;2.03;0.50;;;;;;;;;;5113665;28;20020;-76
2021/12/18 15:13:22;;;;;;;1.25;0.70;;;;;;;;;;5113766;28;20026;-76
2021/12/18 15:16:05;;;;;;;1.55;0.60;;;;;;;;;;5113614;28;20027;-76
2021/12/18 15:18:32;;;;;;;1.52;0.43;;;;;;;;;;5113681;28;20378;-76
2021/12/18 15:20:59;;;;;;;1.83;0.50;;;;;;;;;;5113622;28;20020;-76
2021/12/18 15:23:27;;;;;;;2.75;0.50;;;;;;;;;;5113565;28;20022;-76
2021/12/18 15:25:54;;;;;;;3.13;0.43;;;;;;;;;;5113477;28;20077;-76
2021/12/18 15:28:22;;;;;;;1.42;0.40;;;;;;;;;;5112177;28;20023;-76
2021/12/18 15:30:49;;;;;;;2.15;0.65;;;;;;;;;;5113600;28;20040;-76
2021/12/18 15:33:16;;;;;;;3.22;0.68;;;;;;;;;;5113442;28;20031;-76
2021/12/18 15:35:43;;;;;;;1.50;0.50;;;;;;;;;;5113283;28;20024;-76
2021/12/18 15:38:11;;;;;;;2.17;0.60;;;;;;;;;;5113313;28;20012;-76
2021/12/18 15:40:38;;;;;;;2.85;0.60;;;;;;;;;;5115659;28;20510;-76